createdAt,value
2022-11-26T00:01:40.438Z,82.80
2022-11-26T00:16:42.643Z,73.30
2022-11-26T00:31:44.313Z,79.10
2022-11-26T00:46:46.269Z,83.00
2022-11-26T01:01:48.250Z,73.40
2022-11-26T01:16:49.973Z,69.20
2022-11-26T01:31:51.643Z,94.60
2022-11-26T01:46:52.617Z,76.90
2022-11-26T02:01:54.901Z,73.60
2022-11-26T02:16:56.157Z,88.60
2022-11-26T02:31:57.968Z,105.70
2022-11-26T02:46:59.869Z,125.00
2022-11-26T03:02:01.798Z,127.50
2022-11-26T03:17:02.389Z,118.10
2022-11-26T03:32:04.924Z,155.70
2022-11-26T03:47:05.875Z,140.90
2022-11-26T04:02:08.249Z,148.30
2022-11-26T04:17:11.151Z,151.30
2022-11-26T04:32:14.083Z,135.70
2022-11-26T04:47:17.570Z,120.10
2022-11-26T05:02:20.261Z,110.90
2022-11-26T05:17:22.553Z,93.20
2022-11-26T05:32:23.633Z,79.20
2022-11-26T05:47:25.612Z,93.10
2022-11-26T06:02:26.834Z,69.60
2022-11-26T06:17:29.603Z,62.60
2022-11-26T06:32:29.847Z,63.50
2022-11-26T06:47:30.097Z,62.50
2022-11-26T07:02:30.078Z,61.50
2022-11-26T07:17:31.782Z,65.70
2022-11-26T07:32:34.055Z,48.80
2022-11-26T07:47:33.737Z,64.10
2022-11-26T08:02:35.710Z,51.90
2022-11-26T08:17:38.224Z,63.20
2022-11-26T08:32:39.115Z,49.70
2022-11-26T08:47:39.809Z,50.20
2022-11-26T09:02:40.991Z,35.30
2022-11-26T09:17:42.122Z,32.20
2022-11-26T09:32:42.230Z,24.70
2022-11-26T09:47:44.740Z,43.70
2022-11-26T10:02:46.365Z,36.20
2022-11-26T10:17:47.565Z,29.80
2022-11-26T10:32:48.161Z,25.60
2022-11-26T10:47:51.857Z,41.00
2022-11-26T11:02:52.791Z,29.70
2022-11-26T11:17:53.229Z,23.50
2022-11-26T11:32:54.552Z,20.70
2022-11-26T11:47:56.473Z,15.10
2022-11-26T12:02:56.543Z,23.90
2022-11-26T12:17:58.501Z,31.60
2022-11-26T12:32:59.666Z,28.20
2022-11-26T12:48:00.190Z,22.00
2022-11-26T13:03:00.805Z,35.60
2022-11-26T13:18:02.631Z,26.50
2022-11-26T13:33:03.433Z,28.40
2022-11-26T13:48:04.732Z,28.40
2022-11-26T14:03:04.836Z,36.20
2022-11-26T14:18:06.716Z,28.50
2022-11-26T14:33:07.672Z,26.60
2022-11-26T14:48:09.514Z,32.20
2022-11-26T15:03:10.755Z,33.00
2022-11-26T15:18:11.728Z,36.30
2022-11-26T15:33:13.612Z,82.50
2022-11-26T15:48:13.905Z,34.00
2022-11-26T16:03:24.101Z,38.00
2022-11-26T16:18:25.847Z,29.70
2022-11-26T16:33:26.440Z,42.00
2022-11-26T16:48:27.855Z,26.10
2022-11-26T17:03:29.084Z,52.00
2022-11-26T17:18:29.901Z,37.00
2022-11-26T17:33:32.026Z,40.70
2022-11-26T17:48:33.937Z,45.60
2022-11-26T18:03:34.918Z,47.20
2022-11-26T18:18:36.693Z,72.70
2022-11-26T18:33:39.130Z,48.00
2022-11-26T18:48:40.404Z,61.00
2022-11-26T19:03:44.000Z,65.20
2022-11-26T19:18:45.471Z,79.70
2022-11-26T19:33:45.496Z,80.20
2022-11-26T19:48:47.309Z,73.90
2022-11-26T20:03:49.419Z,87.10
2022-11-26T20:18:51.960Z,84.90
2022-11-26T20:33:53.884Z,80.90
2022-11-26T20:48:55.495Z,72.40
2022-11-26T21:03:56.735Z,62.90
2022-11-26T21:18:58.110Z,89.70
2022-11-26T21:33:59.372Z,87.60
2022-11-26T21:49:00.944Z,80.30
2022-11-26T22:04:02.294Z,73.60
2022-11-26T22:19:04.787Z,63.00
2022-11-26T22:34:06.811Z,66.30
2022-11-26T22:49:07.194Z,78.30
2022-11-26T23:04:08.537Z,75.90
2022-11-26T23:19:11.394Z,73.10
2022-11-26T23:34:12.365Z,83.00
2022-11-26T23:49:13.724Z,71.70
